Startpagina
METAR-TAF:

METAR-TAF

Vliegvelden :

Rotterdam The Hague Airport

Rotterdam, Nederland

breedte: 51-57N, lengte: 004-27E, hoogte: -5 m

Actueel weer

Dit bericht is 7 minuten geleden gemaakt, om 23:55 UTC
Wind 3 kt uit het westen, variërend tussen het zuidwesten en het westnoordwesten
Temperatuur 11°C
Vochtigheid 87%
Druk 1027 hPa
Zicht 10 km of meer

METAR: EHRD 122355Z AUTO 27003KT 230V290 9999 NCD 11/09 Q1027 NOSIG

Tijdstip: 02:02 (00:02 UTC)

Verwachting

Dit bericht is 1 uur en het 17 minuten geleden gemaakt, om 22:45 UTC
Verwachting geldig van 13 om 00 UTC tot 14 om 06 UTC
Wind 5 kt uit het westen
Zicht 10 km of meer
geen wolken onder 1500 m en geen cumulonimbus

TAF: EHRD 122245Z 1300/1406 28005KT CAVOK

Waarnemingen en weersverwachtingen van meer dan 4000 vliegvelden (METAR en TAF).

De beschikbare stations zijn de gele en rode punten op de kaart.

Ga met uw muis naar het station om de naam te zien.

Klik dan om waarnemingen en weersverwachtingen te zien.

kaart wijzigen: klik op de groene knoppen met een zwart kruis om in te zoomen, op de groene knop met een streepje om uit te zoomen of op de groene pijlen voor aangrenzende kaarten.


METAR-TAF: